sensor_id;sensor_type;location;lat;lon;timestamp;pressure;altitude;pressure_sealevel;temperature;humidity
62011;BME280;47967;51.756;10.174;2023-01-29T05:04:28;100905.81;;;-2.91;76.83
62011;BME280;47967;51.756;10.174;2023-01-29T05:08:32;100895.09;;;-2.88;76.21
62011;BME280;47967;51.756;10.174;2023-01-29T05:12:38;100879.91;;;-2.84;76.26
62011;BME280;47967;51.756;10.174;2023-01-29T05:16:42;100870.88;;;-2.80;76.04
62011;BME280;47967;51.756;10.174;2023-01-29T05:20:48;100869.34;;;-2.84;76.07
62011;BME280;47967;51.756;10.174;2023-01-29T05:24:51;100868.84;;;-2.91;76.50
62011;BME280;47967;51.756;10.174;2023-01-29T05:28:54;100861.50;;;-2.86;76.26
62011;BME280;47967;51.756;10.174;2023-01-29T05:32:56;100864.81;;;-2.82;76.74
62011;BME280;47967;51.756;10.174;2023-01-29T05:37:00;100870.00;;;-2.81;76.82
62011;BME280;47967;51.756;10.174;2023-01-29T05:41:03;100874.34;;;-2.80;76.42
62011;BME280;47967;51.756;10.174;2023-01-29T05:45:12;100880.50;;;-2.79;76.58
62011;BME280;47967;51.756;10.174;2023-01-29T05:49:15;100888.66;;;-2.68;76.86
62011;BME280;47967;51.756;10.174;2023-01-29T05:53:19;100886.72;;;-2.64;77.08
62011;BME280;47967;51.756;10.174;2023-01-29T05:57:22;100885.41;;;-2.57;77.35
62011;BME280;47967;51.756;10.174;2023-01-29T06:01:25;100897.75;;;-2.42;78.01
62011;BME280;47967;51.756;10.174;2023-01-29T06:05:27;100910.63;;;-2.35;77.36
62011;BME280;47967;51.756;10.174;2023-01-29T06:09:31;100907.63;;;-2.29;77.24
62011;BME280;47967;51.756;10.174;2023-01-29T06:13:34;100906.91;;;-2.17;77.62
62011;BME280;47967;51.756;10.174;2023-01-29T06:17:36;100902.56;;;-2.18;76.93
62011;BME280;47967;51.756;10.174;2023-01-29T06:21:39;100909.66;;;-2.04;77.24
62011;BME280;47967;51.756;10.174;2023-01-29T06:25:43;100917.94;;;-1.94;76.77
62011;BME280;47967;51.756;10.174;2023-01-29T06:29:45;100920.59;;;-1.94;76.67
62011;BME280;47967;51.756;10.174;2023-01-29T06:33:48;100927.28;;;-1.88;76.72
62011;BME280;47967;51.756;10.174;2023-01-29T06:37:50;100933.03;;;-1.96;76.90
62011;BME280;47967;51.756;10.174;2023-01-29T06:41:54;100950.41;;;-1.92;76.32
62011;BME280;47967;51.756;10.174;2023-01-29T06:45:57;100947.66;;;-1.90;76.22
62011;BME280;47967;51.756;10.174;2023-01-29T06:50:00;100953.94;;;-1.77;76.60
62011;BME280;47967;51.756;10.174;2023-01-29T06:54:02;100957.09;;;-1.70;76.87
62011;BME280;47967;51.756;10.174;2023-01-29T06:58:09;100934.97;;;-1.69;76.69
62011;BME280;47967;51.756;10.174;2023-01-29T07:02:12;100925.53;;;-1.59;76.33
62011;BME280;47967;51.756;10.174;2023-01-29T07:06:15;100905.97;;;-1.56;76.11
62011;BME280;47967;51.756;10.174;2023-01-29T07:10:18;100894.16;;;-1.51;76.26
62011;BME280;47967;51.756;10.174;2023-01-29T07:14:21;100898.25;;;-1.45;76.73
62011;BME280;47967;51.756;10.174;2023-01-29T07:18:24;100929.53;;;-1.37;76.53
62011;BME280;47967;51.756;10.174;2023-01-29T07:22:26;100933.97;;;-1.52;75.76
62011;BME280;47967;51.756;10.174;2023-01-29T07:26:29;100915.06;;;-1.46;76.80
62011;BME280;47967;51.756;10.174;2023-01-29T07:30:33;100898.03;;;-1.27;76.27
62011;BME280;47967;51.756;10.174;2023-01-29T07:34:36;100906.25;;;-1.18;76.33
62011;BME280;47967;51.756;10.174;2023-01-29T07:38:39;100917.03;;;-1.06;75.92
62011;BME280;47967;51.756;10.174;2023-01-29T07:42:41;100929.16;;;-1.17;76.11
62011;BME280;47967;51.756;10.174;2023-01-29T07:46:45;100939.25;;;-1.09;76.29
62011;BME280;47967;51.756;10.174;2023-01-29T07:50:53;100930.75;;;-1.14;76.22
62011;BME280;47967;51.756;10.174;2023-01-29T07:54:56;100939.63;;;-1.01;76.76
62011;BME280;47967;51.756;10.174;2023-01-29T07:58:58;100947.56;;;-0.86;76.33
62011;BME280;47967;51.756;10.174;2023-01-29T08:03:03;100952.84;;;-0.72;75.82
62011;BME280;47967;51.756;10.174;2023-01-29T08:07:06;100951.16;;;-0.87;76.18
62011;BME280;47967;51.756;10.174;2023-01-29T08:11:09;100940.47;;;-0.86;76.02
62011;BME280;47967;51.756;10.174;2023-01-29T08:15:12;100925.41;;;-0.71;76.07
62011;BME280;47967;51.756;10.174;2023-01-29T08:19:16;100902.31;;;-0.41;76.22
62011;BME280;47967;51.756;10.174;2023-01-29T08:23:18;100908.41;;;-0.26;75.59
62011;BME280;47967;51.756;10.174;2023-01-29T08:27:21;100909.81;;;-0.08;75.65
62011;BME280;47967;51.756;10.174;2023-01-29T08:31:23;100908.25;;;0.03;74.81
62011;BME280;47967;51.756;10.174;2023-01-29T08:35:27;100898.38;;;-0.08;74.84
62011;BME280;47967;51.756;10.174;2023-01-29T08:39:30;100874.56;;;-0.10;75.03
62011;BME280;47967;51.756;10.174;2023-01-29T08:43:34;100861.22;;;0.05;75.09
62011;BME280;47967;51.756;10.174;2023-01-29T08:47:44;100860.50;;;0.03;75.29
62011;BME280;47967;51.756;10.174;2023-01-29T08:51:48;100876.22;;;0.19;74.64
62011;BME280;47967;51.756;10.174;2023-01-29T08:55:52;100876.13;;;0.33;74.38
62011;BME280;47967;51.756;10.174;2023-01-29T08:59:55;100880.59;;;0.45;73.80
62011;BME280;47967;51.756;10.174;2023-01-29T09:03:57;100882.50;;;0.56;73.19
62011;BME280;47967;51.756;10.174;2023-01-29T09:08:02;100886.50;;;0.62;73.15
62011;BME280;47967;51.756;10.174;2023-01-29T09:12:05;100885.44;;;0.64;73.28
62011;BME280;47967;51.756;10.174;2023-01-29T09:16:08;100881.50;;;0.57;73.20
62011;BME280;47967;51.756;10.174;2023-01-29T09:20:11;100881.50;;;0.70;73.29
62011;BME280;47967;51.756;10.174;2023-01-29T09:24:15;100875.63;;;0.78;73.06
62011;BME280;47967;51.756;10.174;2023-01-29T09:28:18;100870.75;;;0.85;73.16
62011;BME280;47967;51.756;10.174;2023-01-29T09:32:20;100881.63;;;1.06;73.03
62011;BME280;47967;51.756;10.174;2023-01-29T09:36:43;100868.66;;;1.14;72.40
62011;BME280;47967;51.756;10.174;2023-01-29T09:40:53;100852.13;;;1.22;72.15
62011;BME280;47967;51.756;10.174;2023-01-29T09:45:02;100854.66;;;1.48;71.66
62011;BME280;47967;51.756;10.174;2023-01-29T09:49:11;100849.09;;;1.64;71.20
62011;BME280;47967;51.756;10.174;2023-01-29T09:53:19;100847.03;;;1.67;71.05
62011;BME280;47967;51.756;10.174;2023-01-29T09:57:29;100831.59;;;1.84;69.94
62011;BME280;47967;51.756;10.174;2023-01-29T10:01:41;100826.91;;;1.99;69.80
62011;BME280;47967;51.756;10.174;2023-01-29T10:06:01;100815.81;;;2.16;69.81
62011;BME280;47967;51.756;10.174;2023-01-29T10:10:23;100823.59;;;2.31;69.08
62011;BME280;47967;51.756;10.174;2023-01-29T10:14:36;100808.91;;;2.48;68.52
62011;BME280;47967;51.756;10.174;2023-01-29T10:23:18;100802.34;;;2.86;67.43
62011;BME280;47967;51.756;10.174;2023-01-29T10:27:29;100813.13;;;2.73;67.38
62011;BME280;47967;51.756;10.174;2023-01-29T10:31:37;100793.38;;;2.76;67.80
62011;BME280;47967;51.756;10.174;2023-01-29T10:35:42;100795.19;;;2.86;67.48
62011;BME280;47967;51.756;10.174;2023-01-29T10:39:50;100784.97;;;2.92;67.29
62011;BME280;47967;51.756;10.174;2023-01-29T10:44:00;100793.91;;;3.13;65.75
62011;BME280;47967;51.756;10.174;2023-01-29T10:48:37;100788.00;;;2.98;66.16
62011;BME280;47967;51.756;10.174;2023-01-29T10:52:53;100774.31;;;2.92;66.04
62011;BME280;47967;51.756;10.174;2023-01-29T10:57:07;100755.28;;;3.08;66.15
62011;BME280;47967;51.756;10.174;2023-01-29T11:01:14;100756.47;;;3.36;65.02
62011;BME280;47967;51.756;10.174;2023-01-29T11:05:28;100750.03;;;3.17;65.56
62011;BME280;47967;51.756;10.174;2023-01-29T11:09:36;100740.19;;;3.18;66.25
62011;BME280;47967;51.756;10.174;2023-01-29T11:13:46;100742.63;;;3.42;65.03
62011;BME280;47967;51.756;10.174;2023-01-29T11:18:06;100739.22;;;3.40;65.04
62011;BME280;47967;51.756;10.174;2023-01-29T11:22:14;100739.44;;;3.48;64.59
62011;BME280;47967;51.756;10.174;2023-01-29T11:26:19;100741.53;;;3.45;63.94
62011;BME280;47967;51.756;10.174;2023-01-29T11:30:25;100728.56;;;3.19;64.75
62011;BME280;47967;51.756;10.174;2023-01-29T11:34:28;100719.16;;;3.36;65.69
62011;BME280;47967;51.756;10.174;2023-01-29T11:38:33;100709.78;;;3.63;64.39
62011;BME280;47967;51.756;10.174;2023-01-29T11:42:36;100693.63;;;3.64;64.32
62011;BME280;47967;51.756;10.174;2023-01-29T11:46:38;100686.81;;;3.81;63.74
62011;BME280;47967;51.756;10.174;2023-01-29T11:50:41;100674.59;;;3.79;63.76
62011;BME280;47967;51.756;10.174;2023-01-29T11:54:48;100673.78;;;3.88;63.80
62011;BME280;47967;51.756;10.174;2023-01-29T11:58:53;100666.78;;;3.66;64.32
62011;BME280;47967;51.756;10.174;2023-01-29T12:03:03;100659.28;;;3.81;64.28
62011;BME280;47967;51.756;10.174;2023-01-29T12:07:11;100654.47;;;4.06;63.83
62011;BME280;47967;51.756;10.174;2023-01-29T12:11:23;100648.13;;;3.97;63.34
62011;BME280;47967;51.756;10.174;2023-01-29T12:15:26;100649.94;;;3.96;63.55
62011;BME280;47967;51.756;10.174;2023-01-29T12:19:34;100647.47;;;3.74;64.36
62011;BME280;47967;51.756;10.174;2023-01-29T12:23:44;100629.31;;;3.67;64.07
62011;BME280;47967;51.756;10.174;2023-01-29T12:27:54;100628.22;;;3.49;64.92
62011;BME280;47967;51.756;10.174;2023-01-29T12:32:06;100621.91;;;3.50;64.83
62011;BME280;47967;51.756;10.174;2023-01-29T12:36:14;100614.25;;;3.57;65.43
62011;BME280;47967;51.756;10.174;2023-01-29T12:40:20;100609.78;;;3.36;65.48
62011;BME280;47967;51.756;10.174;2023-01-29T12:44:30;100596.06;;;3.41;65.04
62011;BME280;47967;51.756;10.174;2023-01-29T12:48:38;100585.34;;;3.31;66.15
62011;BME280;47967;51.756;10.174;2023-01-29T12:52:47;100572.22;;;3.18;66.63
62011;BME280;47967;51.756;10.174;2023-01-29T12:56:54;100569.84;;;3.25;66.12
62011;BME280;47967;51.756;10.174;2023-01-29T13:01:03;100569.88;;;3.03;67.27
62011;BME280;47967;51.756;10.174;2023-01-29T13:05:17;100564.53;;;3.03;66.29
62011;BME280;47967;51.756;10.174;2023-01-29T13:09:24;100555.91;;;2.90;66.96
62011;BME280;47967;51.756;10.174;2023-01-29T13:13:30;100560.91;;;3.04;67.45
62011;BME280;47967;51.756;10.174;2023-01-29T13:17:38;100549.16;;;2.86;66.69
62011;BME280;47967;51.756;10.174;2023-01-29T13:21:43;100556.94;;;2.99;66.44
62011;BME280;47967;51.756;10.174;2023-01-29T13:25:49;100563.44;;;2.85;65.70
62011;BME280;47967;51.756;10.174;2023-01-29T13:29:54;100564.63;;;2.92;65.90
62011;BME280;47967;51.756;10.174;2023-01-29T13:34:04;100571.06;;;2.90;65.85
62011;BME280;47967;51.756;10.174;2023-01-29T13:38:22;100570.22;;;3.10;64.61
62011;BME280;47967;51.756;10.174;2023-01-29T13:42:37;100570.50;;;3.17;64.41
62011;BME280;47967;51.756;10.174;2023-01-29T13:46:40;100553.63;;;3.07;64.15
62011;BME280;47967;51.756;10.174;2023-01-29T13:50:45;100556.50;;;2.94;64.15
62011;BME280;47967;51.756;10.174;2023-01-29T13:54:50;100546.47;;;3.07;64.97
62011;BME280;47967;51.756;10.174;2023-01-29T13:58:55;100539.72;;;3.03;64.07
62011;BME280;47967;51.756;10.174;2023-01-29T14:08:36;100520.47;;;2.99;64.82
62011;BME280;47967;51.756;10.174;2023-01-29T14:12:40;100525.84;;;3.09;64.83
62011;BME280;47967;51.756;10.174;2023-01-29T14:16:43;100520.81;;;3.16;64.77
62011;BME280;47967;51.756;10.174;2023-01-29T14:20:55;100520.66;;;3.08;64.79
62011;BME280;47967;51.756;10.174;2023-01-29T14:25:02;100514.22;;;2.89;64.81
62011;BME280;47967;51.756;10.174;2023-01-29T14:29:16;100502.03;;;2.86;65.01
62011;BME280;47967;51.756;10.174;2023-01-29T14:33:35;100506.81;;;2.93;65.15
62011;BME280;47967;51.756;10.174;2023-01-29T14:37:45;100494.22;;;2.95;64.92
62011;BME280;47967;51.756;10.174;2023-01-29T14:41:51;100491.88;;;2.80;65.19
62011;BME280;47967;51.756;10.174;2023-01-29T14:45:53;100497.34;;;2.79;65.44
62011;BME280;47967;51.756;10.174;2023-01-29T14:49:57;100487.91;;;2.75;65.34
62011;BME280;47967;51.756;10.174;2023-01-29T14:54:03;100494.06;;;2.65;65.50
62011;BME280;47967;51.756;10.174;2023-01-29T14:58:12;100492.81;;;2.69;65.44
62011;BME280;47967;51.756;10.174;2023-01-29T15:02:19;100492.28;;;2.76;65.96
62011;BME280;47967;51.756;10.174;2023-01-29T15:06:29;100498.63;;;2.84;66.18
62011;BME280;47967;51.756;10.174;2023-01-29T15:10:38;100504.09;;;2.83;65.90
62011;BME280;47967;51.756;10.174;2023-01-29T15:14:48;100490.78;;;2.83;66.46
62011;BME280;47967;51.756;10.174;2023-01-29T15:18:56;100494.94;;;2.76;66.64
62011;BME280;47967;51.756;10.174;2023-01-29T15:23:24;100488.78;;;2.75;66.81
62011;BME280;47967;51.756;10.174;2023-01-29T15:27:27;100478.50;;;2.70;67.44
62011;BME280;47967;51.756;10.174;2023-01-29T15:31:31;100463.31;;;2.61;67.55
62011;BME280;47967;51.756;10.174;2023-01-29T15:35:37;100471.56;;;2.58;67.34
62011;BME280;47967;51.756;10.174;2023-01-29T15:39:41;100460.38;;;2.64;67.53
62011;BME280;47967;51.756;10.174;2023-01-29T15:43:45;100469.22;;;2.65;67.59
62011;BME280;47967;51.756;10.174;2023-01-29T15:47:50;100458.63;;;2.53;67.95
62011;BME280;47967;51.756;10.174;2023-01-29T15:51:54;100460.13;;;2.46;68.16
62011;BME280;47967;51.756;10.174;2023-01-29T15:55:59;100466.19;;;2.48;67.77
62011;BME280;47967;51.756;10.174;2023-01-29T16:00:04;100466.78;;;2.52;67.53
62011;BME280;47967;51.756;10.174;2023-01-29T16:04:19;100460.56;;;2.51;67.62
62011;BME280;47967;51.756;10.174;2023-01-29T16:08:24;100461.44;;;2.31;68.10
62011;BME280;47967;51.756;10.174;2023-01-29T16:12:27;100454.88;;;2.35;68.59
62011;BME280;47967;51.756;10.174;2023-01-29T16:16:30;100450.84;;;2.19;69.98
62011;BME280;47967;51.756;10.174;2023-01-29T16:20:39;100451.63;;;2.10;70.76
62011;BME280;47967;51.756;10.174;2023-01-29T16:24:44;100450.22;;;1.95;70.91
62011;BME280;47967;51.756;10.174;2023-01-29T16:28:48;100441.16;;;1.97;71.32
62011;BME280;47967;51.756;10.174;2023-01-29T16:32:51;100437.44;;;1.88;71.64
62011;BME280;47967;51.756;10.174;2023-01-29T16:36:55;100428.28;;;1.81;72.19
62011;BME280;47967;51.756;10.174;2023-01-29T16:41:10;100426.56;;;1.80;72.52
62011;BME280;47967;51.756;10.174;2023-01-29T16:45:32;100422.91;;;1.92;72.44
62011;BME280;47967;51.756;10.174;2023-01-29T16:49:42;100422.75;;;1.94;72.11
62011;BME280;47967;51.756;10.174;2023-01-29T16:53:56;100416.75;;;1.92;71.88
62011;BME280;47967;51.756;10.174;2023-01-29T16:58:03;100412.13;;;1.94;72.00
62011;BME280;47967;51.756;10.174;2023-01-29T17:02:20;100412.63;;;1.88;72.29
62011;BME280;47967;51.756;10.174;2023-01-29T17:06:25;100404.47;;;1.80;72.47
62011;BME280;47967;51.756;10.174;2023-01-29T17:10:29;100417.50;;;1.83;73.13
62011;BME280;47967;51.756;10.174;2023-01-29T17:14:33;100404.66;;;1.88;72.78
62011;BME280;47967;51.756;10.174;2023-01-29T17:18:36;100398.34;;;1.89;73.08
62011;BME280;47967;51.756;10.174;2023-01-29T17:22:39;100401.03;;;1.89;73.52
62011;BME280;47967;51.756;10.174;2023-01-29T17:26:43;100390.72;;;1.96;73.51
62011;BME280;47967;51.756;10.174;2023-01-29T17:30:45;100387.47;;;1.92;73.88
62011;BME280;47967;51.756;10.174;2023-01-29T17:35:06;100376.31;;;1.98;73.33
62011;BME280;47967;51.756;10.174;2023-01-29T17:39:14;100359.25;;;2.01;73.22
62011;BME280;47967;51.756;10.174;2023-01-29T17:43:19;100350.44;;;2.00;72.98
62011;BME280;47967;51.756;10.174;2023-01-29T17:47:21;100350.88;;;2.05;72.85
62011;BME280;47967;51.756;10.174;2023-01-29T17:51:24;100345.53;;;2.05;72.40
62011;BME280;47967;51.756;10.174;2023-01-29T17:55:26;100343.09;;;2.14;72.33
62011;BME280;47967;51.756;10.174;2023-01-29T17:59:32;100325.22;;;2.04;72.64
62011;BME280;47967;51.756;10.174;2023-01-29T18:03:34;100315.88;;;2.10;72.59
62011;BME280;47967;51.756;10.174;2023-01-29T18:07:37;100319.47;;;1.99;72.51
62011;BME280;47967;51.756;10.174;2023-01-29T18:11:41;100313.09;;;1.90;73.14
62011;BME280;47967;51.756;10.174;2023-01-29T18:15:45;100314.75;;;1.91;72.75
62011;BME280;47967;51.756;10.174;2023-01-29T18:19:48;100314.13;;;1.78;72.93
62011;BME280;47967;51.756;10.174;2023-01-29T18:23:50;100319.72;;;1.75;72.91
62011;BME280;47967;51.756;10.174;2023-01-29T18:27:53;100330.09;;;1.78;72.70
62011;BME280;47967;51.756;10.174;2023-01-29T18:31:57;100319.00;;;1.73;72.74
62011;BME280;47967;51.756;10.174;2023-01-29T18:35:59;100317.28;;;1.72;72.54
62011;BME280;47967;51.756;10.174;2023-01-29T18:40:06;100326.84;;;1.74;73.15
62011;BME280;47967;51.756;10.174;2023-01-29T18:44:09;100327.56;;;1.55;72.68
62011;BME280;47967;51.756;10.174;2023-01-29T18:48:13;100316.69;;;1.47;73.17
62011;BME280;47967;51.756;10.174;2023-01-29T18:52:15;100321.19;;;1.47;73.80
62011;BME280;47967;51.756;10.174;2023-01-29T18:56:18;100313.66;;;1.52;73.85
62011;BME280;47967;51.756;10.174;2023-01-29T19:00:21;100314.63;;;1.51;73.82
62011;BME280;47967;51.756;10.174;2023-01-29T19:04:25;100308.47;;;1.50;73.38
62011;BME280;47967;51.756;10.174;2023-01-29T19:08:28;100304.88;;;1.40;73.72
62011;BME280;47967;51.756;10.174;2023-01-29T19:12:30;100296.53;;;1.44;73.94
62011;BME280;47967;51.756;10.174;2023-01-29T19:16:34;100274.03;;;1.49;73.76
62011;BME280;47967;51.756;10.174;2023-01-29T19:20:39;100280.19;;;1.49;73.73
62011;BME280;47967;51.756;10.174;2023-01-29T19:24:42;100255.47;;;1.37;73.68
62011;BME280;47967;51.756;10.174;2023-01-29T19:28:46;100248.88;;;1.53;73.61
62011;BME280;47967;51.756;10.174;2023-01-29T19:32:48;100257.47;;;1.45;73.89
62011;BME280;47967;51.756;10.174;2023-01-29T19:36:52;100251.13;;;1.57;73.68
62011;BME280;47967;51.756;10.174;2023-01-29T19:40:54;100255.88;;;1.54;73.29
62011;BME280;47967;51.756;10.174;2023-01-29T19:44:57;100257.09;;;1.50;73.02
62011;BME280;47967;51.756;10.174;2023-01-29T19:48:59;100236.41;;;1.53;73.47
62011;BME280;47967;51.756;10.174;2023-01-29T19:53:05;100223.63;;;1.47;73.61
62011;BME280;47967;51.756;10.174;2023-01-29T19:57:07;100220.78;;;1.39;73.76
62011;BME280;47967;51.756;10.174;2023-01-29T20:01:13;100228.28;;;1.55;73.65
62011;BME280;47967;51.756;10.174;2023-01-29T20:05:16;100210.78;;;1.52;73.34
62011;BME280;47967;51.756;10.174;2023-01-29T20:09:20;100210.25;;;1.58;73.03
62011;BME280;47967;51.756;10.174;2023-01-29T20:13:23;100187.97;;;1.50;73.24
62011;BME280;47967;51.756;10.174;2023-01-29T20:17:25;100188.50;;;1.43;73.37
62011;BME280;47967;51.756;10.174;2023-01-29T20:21:28;100170.31;;;1.49;73.36
62011;BME280;47967;51.756;10.174;2023-01-29T20:25:32;100171.56;;;1.44;73.45
62011;BME280;47967;51.756;10.174;2023-01-29T20:29:36;100183.19;;;1.43;73.66
62011;BME280;47967;51.756;10.174;2023-01-29T20:33:39;100155.19;;;1.39;73.61
62011;BME280;47967;51.756;10.174;2023-01-29T20:37:42;100135.84;;;1.37;73.50
62011;BME280;47967;51.756;10.174;2023-01-29T20:41:45;100127.88;;;1.37;72.88
62011;BME280;47967;51.756;10.174;2023-01-29T20:45:48;100117.09;;;1.39;72.71
62011;BME280;47967;51.756;10.174;2023-01-29T20:49:50;100095.72;;;1.40;72.17
62011;BME280;47967;51.756;10.174;2023-01-29T20:53:53;100092.09;;;1.51;71.77
62011;BME280;47967;51.756;10.174;2023-01-29T20:57:58;100092.06;;;1.41;71.64
62011;BME280;47967;51.756;10.174;2023-01-29T21:02:09;100079.44;;;1.34;72.06
62011;BME280;47967;51.756;10.174;2023-01-29T21:06:12;100071.13;;;1.48;71.54
62011;BME280;47967;51.756;10.174;2023-01-29T21:10:15;100059.38;;;1.51;71.81
62011;BME280;47967;51.756;10.174;2023-01-29T21:14:20;100056.31;;;1.55;71.59
62011;BME280;47967;51.756;10.174;2023-01-29T21:18:22;100043.53;;;1.39;71.60
62011;BME280;47967;51.756;10.174;2023-01-29T21:22:25;100045.75;;;1.44;71.96
62011;BME280;47967;51.756;10.174;2023-01-29T21:26:28;100031.91;;;1.40;71.70
62011;BME280;47967;51.756;10.174;2023-01-29T21:30:32;100038.31;;;1.38;72.25
62011;BME280;47967;51.756;10.174;2023-01-29T21:34:35;100028.56;;;1.48;72.32
62011;BME280;47967;51.756;10.174;2023-01-29T21:38:37;100031.50;;;1.45;72.02
62011;BME280;47967;51.756;10.174;2023-01-29T21:42:40;100031.38;;;1.47;71.99
62011;BME280;47967;51.756;10.174;2023-01-29T21:47:02;100005.63;;;1.47;72.48
62011;BME280;47967;51.756;10.174;2023-01-29T21:51:12;99998.63;;;1.46;72.38
62011;BME280;47967;51.756;10.174;2023-01-29T21:55:16;100003.09;;;1.46;72.87
62011;BME280;47967;51.756;10.174;2023-01-29T21:59:19;100009.41;;;1.44;73.09
